Terminal Aerodrome Forecast
Issued by NWS

Home | Current Version | Previous Version | Text Only | Print | Product List | Glossary On
Versions: 1 2 3 4 5 6 7 8 9 10 11 12 13
945
FTUS43 KMPX 072325
TAFRWF
TAF
KRWF 072325Z 0800/0824 31025G38KT 6SM -SN OVC015
      TEMPO 0800/0803 1 1/2SM -SN BLSN
     FM080300 32030G42KT 2SM -SN BLSN OVC015
      TEMPO 0803/0807 1/2SM -SN BLSN
     FM081200 33026G38KT 2SM BLSN OVC025
     FM081700 33024G34KT P6SM BKN025=

USA.gov is the U.S. government's official web portal to all federal, state and local government web resources and services.